Time;durP1;ratioP1;P1;durP2;ratioP2;P2;SDS_P1;SDS_P2;PMS_P1;PMS_P2;Temp;Humidity;BMP_temperature;BMP_pressure;BME280_temperature;BME280_humidity;BME280_pressure;Samples;Min_cycle;Max_cycle;Signal;HPM_P1;HPM_P2
2022/05/26 00:01:07;;;;;;;7.10;1.90;;;;;;;25.46;37.11;102301.44;5102448;28;20130;-45
2022/05/26 00:03:37;;;;;;;5.70;2.05;;;;;;;25.49;37.06;102305.88;5102488;28;20027;-46
2022/05/26 00:06:06;;;;;;;6.57;1.80;;;;;;;25.54;37.17;102303.41;5103974;28;20389;-45
2022/05/26 00:08:36;;;;;;;7.47;2.22;;;;;;;25.52;37.18;102291.97;5104007;28;20469;-47
2022/05/26 00:11:07;;;;;;;5.05;1.90;;;;;;;25.52;37.04;102295.47;5106236;28;20083;-44
2022/05/26 00:13:37;;;;;;;5.45;2.00;;;;;;;25.47;37.19;102297.09;5107678;28;20023;-45
2022/05/26 00:16:06;;;;;;;5.30;1.75;;;;;;;25.52;36.98;102295.47;5107325;28;20020;-45
2022/05/26 00:18:34;;;;;;;7.97;2.65;;;;;;;25.62;36.63;102291.34;5107868;28;20135;-47
2022/05/26 00:21:02;;;;;;;4.85;1.83;;;;;;;25.65;36.83;102295.81;5107550;28;20031;-45
2022/05/26 00:23:30;;;;;;;5.03;2.40;;;;;;;25.69;36.42;102295.03;5107343;28;20024;-45
2022/05/26 00:25:59;;;;;;;6.45;1.73;;;;;;;25.58;36.98;102285.13;5107386;28;20035;-45
2022/05/26 00:28:27;;;;;;;6.20;1.90;;;;;;;25.60;36.94;102288.69;5105641;28;20020;-45
2022/05/26 00:30:55;;;;;;;5.00;1.60;;;;;;;25.61;36.59;102281.69;5106953;28;20027;-48
2022/05/26 00:33:24;;;;;;;7.10;1.80;;;;;;;25.63;36.79;102296.66;5107057;28;20498;-45
2022/05/26 00:35:52;;;;;;;5.95;1.80;;;;;;;25.58;36.76;102292.09;5107045;28;20031;-45
2022/05/26 00:38:20;;;;;;;3.97;1.33;;;;;;;25.62;37.01;102286.09;5105684;28;20389;-48
2022/05/26 00:40:48;;;;;;;5.28;1.77;;;;;;;25.59;36.69;102281.66;5106740;27;20043;-45
2022/05/26 00:43:17;;;;;;;5.03;1.73;;;;;;;25.53;36.60;102280.59;5106056;28;20034;-50
2022/05/26 00:46:00;;;;;;;6.47;1.83;;;;;;;25.53;36.77;102280.59;5107023;28;20032;-45
2022/05/26 00:48:34;;;;;;;6.72;1.60;;;;;;;25.48;37.00;102275.22;5107159;28;20039;-48
2022/05/26 00:51:03;;;;;;;3.80;1.33;;;;;;;25.46;37.10;102283.06;5105361;28;20028;-45
2022/05/26 00:53:39;;;;;;;5.03;1.70;;;;;;;25.47;37.27;102283.97;5105343;28;20586;-45
2022/05/26 00:56:15;;;;;;;5.30;1.65;;;;;;;25.50;36.92;102293.66;5107034;28;20027;-47
2022/05/26 00:58:48;;;;;;;4.07;1.38;;;;;;;25.48;37.07;102285.75;5105828;28;20303;-48
2022/05/26 01:01:17;;;;;;;6.22;2.00;;;;;;;25.51;37.32;102292.81;5106468;28;20027;-45
2022/05/26 01:03:52;;;;;;;5.20;1.45;;;;;;;25.37;36.91;102269.66;5105233;28;20020;-47
2022/05/26 01:06:21;;;;;;;;;;;;;;;25.45;37.02;102280.41;5106869;28;20031;-45
2022/05/26 01:09:03;;;;;;;3.42;1.27;;;;;;;25.43;37.18;102279.47;5106557;28;19920;-45
2022/05/26 01:11:33;;;;;;;3.65;1.60;;;;;;;25.40;37.38;102292.47;5106644;28;20039;-44
2022/05/26 01:14:07;;;;;;;4.90;1.52;;;;;;;25.47;36.81;102291.84;5106036;28;20070;-48
2022/05/26 01:16:42;;;;;;;5.93;2.17;;;;;;;25.46;37.10;102277.78;5106343;28;20035;-47
2022/05/26 01:19:49;;;;;;;5.68;1.83;;;;;;;25.54;36.73;102291.16;5106178;28;20451;-45
2022/05/26 01:22:37;;;;;;;5.45;1.50;;;;;;;25.56;36.98;102288.56;5102142;28;20122;-45
2022/05/26 01:25:25;;;;;;;5.43;1.67;;;;;;;25.54;36.78;102292.91;5098033;28;20477;-46
2022/05/26 01:28:21;;;;;;;3.28;1.20;;;;;;;25.46;37.30;102288.31;5102274;28;20036;-47
2022/05/26 01:31:08;;;;;;;5.45;1.95;;;;;;;25.48;37.03;102286.63;5103655;28;20084;-44
2022/05/26 01:33:56;;;;;;;6.35;1.70;;;;;;;25.51;37.16;102287.56;5106363;28;20049;-49
2022/05/26 01:36:31;;;;;;;4.38;1.63;;;;;;;25.51;37.09;102292.81;5102477;28;20036;-44
2022/05/26 01:39:24;;;;;;;4.70;1.65;;;;;;;25.53;36.73;102286.72;5104484;28;20050;-46
2022/05/26 01:42:18;;;;;;;4.13;1.55;;;;;;;25.45;36.84;102272.50;5105696;28;20526;-46
2022/05/26 01:45:15;;;;;;;5.60;1.63;;;;;;;25.46;37.05;102290.06;5093215;28;20485;-48
2022/05/26 01:48:07;;;;;;;3.75;1.30;;;;;;;25.45;37.13;102299.66;5100131;28;20039;-45
2022/05/26 01:50:42;;;;;;;4.60;1.40;;;;;;;25.37;37.24;102288.03;5076008;28;20046;-44
2022/05/26 01:53:26;;;;;;;4.45;1.65;;;;;;;25.41;37.13;102296.88;5105826;28;20019;-44
2022/05/26 01:55:58;;;;;;;5.03;1.50;;;;;;;25.42;36.93;102298.69;5087425;28;20092;-44
2022/05/26 01:58:38;;;;;;;5.80;1.27;;;;;;;25.37;36.99;102290.66;5104437;28;20115;-44
2022/05/26 02:01:12;;;;;;;5.95;1.63;;;;;;;25.39;37.33;102298.56;5105344;28;20132;-44
2022/05/26 02:03:43;;;;;;;4.40;1.40;;;;;;;25.40;37.24;102306.47;5105329;28;20040;-48
2022/05/26 02:06:31;;;;;;;5.18;1.48;;;;;;;25.38;37.04;102307.28;5103711;28;20035;-45
2022/05/26 02:09:12;;;;;;;4.53;1.42;;;;;;;25.37;37.30;102310.78;5098183;28;20032;-44
2022/05/26 02:11:46;;;;;;;5.63;1.55;;;;;;;25.36;37.45;102301.09;5105117;28;20510;-46
2022/05/26 02:14:18;;;;;;;3.60;1.17;;;;;;;25.33;37.13;102305.41;5103964;28;20080;-46
2022/05/26 02:16:48;;;;;;;3.92;1.20;;;;;;;25.32;37.41;102308.00;5103610;28;20495;-45
2022/05/26 02:19:22;;;;;;;5.05;1.55;;;;;;;25.32;37.42;102303.63;5103875;28;20024;-44
2022/05/26 02:22:00;;;;;;;3.72;1.70;;;;;;;25.33;37.08;102315.06;5086583;28;20096;-44
2022/05/26 02:24:51;;;;;;;3.38;1.15;;;;;;;25.39;37.38;102320.50;5104806;28;20031;-46
2022/05/26 02:27:19;;;;;;;6.47;1.55;;;;;;;25.25;37.38;102291.19;5098865;28;20046;-45
2022/05/26 02:29:51;;;;;;;3.40;1.20;;;;;;;25.33;37.27;102309.81;5102573;28;20043;-47
2022/05/26 02:32:25;;;;;;;5.05;1.25;;;;;;;25.37;37.13;102321.28;5102848;28;20034;-47
2022/05/26 02:34:55;;;;;;;3.40;1.30;;;;;;;25.38;37.04;102318.72;5104703;27;20030;-47
2022/05/26 02:37:24;;;;;;;4.63;1.30;;;;;;;25.33;37.24;102317.69;5103244;28;20556;-50
2022/05/26 02:39:52;;;;;;;2.78;1.00;;;;;;;25.26;37.37;102308.72;5104741;28;20031;-47
2022/05/26 02:42:21;;;;;;;3.85;1.08;;;;;;;25.25;37.40;102319.19;5104542;28;20475;-45
2022/05/26 02:44:50;;;;;;;5.90;1.48;;;;;;;25.18;37.42;102318.13;5104621;28;20039;-46
2022/05/26 02:47:19;;;;;;;3.40;1.48;;;;;;;25.26;37.67;102318.34;5104294;28;20156;-45
2022/05/26 02:50:13;;;;;;;2.53;1.02;;;;;;;25.26;37.46;102321.88;5104382;28;20504;-44
2022/05/26 02:52:52;;;;;;;2.70;0.90;;;;;;;25.30;37.26;102320.22;5100870;28;20039;-47
2022/05/26 02:55:43;;;;;;;4.18;1.25;;;;;;;25.30;37.42;102315.88;5103074;28;20027;-44
2022/05/26 02:58:12;;;;;;;4.72;1.30;;;;;;;25.30;37.26;102317.59;5097678;28;20115;-51
2022/05/26 03:01:01;;;;;;;3.75;1.13;;;;;;;25.32;37.17;102314.16;5104144;28;21022;-44
2022/05/26 03:03:40;;;;;;;3.10;1.23;;;;;;;25.27;37.44;102318.41;5096011;28;20040;-44
2022/05/26 03:06:13;;;;;;;3.08;1.00;;;;;;;25.28;37.41;102312.31;5104098;28;20083;-45
2022/05/26 03:08:43;;;;;;;3.97;1.05;;;;;;;25.30;37.41;102315.88;5104274;28;20027;-44
2022/05/26 03:11:15;;;;;;;4.05;1.23;;;;;;;25.30;37.27;102307.06;5103998;28;20477;-46
2022/05/26 03:13:43;;;;;;;3.45;1.00;;;;;;;25.31;37.25;102303.59;5103054;28;20059;-51
2022/05/26 03:16:12;;;;;;;3.50;1.20;;;;;;;25.31;37.17;102308.84;5103971;28;20034;-44
2022/05/26 03:18:40;;;;;;;1.83;0.80;;;;;;;25.30;37.25;102315.88;5104045;28;20393;-48
2022/05/26 03:21:09;;;;;;;4.40;1.20;;;;;;;25.36;37.08;102315.16;5104097;28;21242;-45
2022/05/26 03:23:39;;;;;;;3.22;0.98;;;;;;;25.30;37.31;102307.06;5093371;28;20035;-47
2022/05/26 03:26:08;;;;;;;2.80;0.98;;;;;;;25.30;37.04;102304.44;5103585;28;20081;-45
2022/05/26 03:28:37;;;;;;;3.33;1.00;;;;;;;25.30;36.97;102304.44;5102974;28;20031;-43
2022/05/26 03:31:09;;;;;;;2.83;1.00;;;;;;;25.32;37.36;102308.88;5102626;28;20039;-46
2022/05/26 03:41:59;;;;;;;3.03;1.05;;;;;;;25.29;37.57;102315.81;5100349;28;20088;-45
2022/05/26 03:44:29;;;;;;;3.92;1.20;;;;;;;25.28;37.32;102316.66;5105939;28;20084;-47
2022/05/26 03:46:57;;;;;;;5.03;1.52;;;;;;;25.22;37.40;102320.00;5106800;28;20028;-48
2022/05/26 03:49:26;;;;;;;3.95;1.17;;;;;;;25.25;37.39;102317.47;5108167;28;20023;-47
2022/05/26 03:51:57;;;;;;;3.42;0.98;;;;;;;25.23;37.30;102313.88;5108062;28;20438;-47
2022/05/26 03:54:26;;;;;;;3.90;1.10;;;;;;;25.19;37.57;102312.00;5106645;28;20031;-44
2022/05/26 03:56:55;;;;;;;3.60;1.00;;;;;;;25.11;37.59;102292.53;5106212;28;20039;-47
2022/05/26 03:59:23;;;;;;;3.95;1.20;;;;;;;25.20;37.21;102334.81;5106770;28;20020;-49
2022/05/26 04:01:53;;;;;;;2.67;0.80;;;;;;;25.27;37.58;102323.66;5107880;28;20107;-52
2022/05/26 04:04:21;;;;;;;3.08;0.80;;;;;;;25.22;37.73;102321.75;5106411;28;20028;-49
2022/05/26 04:06:50;;;;;;;2.78;0.88;;;;;;;25.18;37.27;102323.38;5107352;28;20115;-48
2022/05/26 04:09:19;;;;;;;3.97;0.95;;;;;;;25.17;37.48;102324.22;5107274;28;20055;-46
2022/05/26 04:11:46;;;;;;;2.92;0.90;;;;;;;25.19;37.38;102317.25;5107158;28;20039;-47
2022/05/26 04:14:14;;;;;;;3.10;1.00;;;;;;;25.16;37.61;102320.72;5106364;28;20106;-46
2022/05/26 04:16:43;;;;;;;3.03;0.85;;;;;;;25.17;37.51;102325.13;5107345;28;20481;-46
2022/05/26 04:19:11;;;;;;;3.08;1.10;;;;;;;25.12;37.76;102313.56;5107318;27;20035;-45
2022/05/26 04:22:14;;;;;;;2.50;0.70;;;;;;;25.16;37.77;102333.84;5107137;28;20043;-45
2022/05/26 04:24:27;;;;;;;3.55;1.10;;;;;;;25.15;37.78;102337.31;5106830;28;20088;-49
2022/05/26 04:26:55;;;;;;;2.20;0.60;;;;;;;25.16;37.38;102325.06;5107211;28;20019;-46
2022/05/26 04:29:24;;;;;;;2.28;0.82;;;;;;;25.15;37.65;102331.19;5107453;28;20028;-46
2022/05/26 04:31:52;;;;;;;2.42;0.82;;;;;;;25.12;37.69;102325.81;5106972;28;20096;-50
2022/05/26 04:34:20;;;;;;;2.88;0.90;;;;;;;25.14;37.54;102327.66;5107024;28;20077;-46
2022/05/26 04:36:49;;;;;;;1.92;0.75;;;;;;;25.17;36.86;102335.63;5105825;28;20505;-45
2022/05/26 04:39:18;;;;;;;2.17;0.80;;;;;;;25.19;37.27;102346.16;5107087;28;20024;-45
2022/05/26 04:41:47;;;;;;;2.22;0.80;;;;;;;25.17;37.56;102340.88;5106782;28;20028;-46
2022/05/26 04:44:17;;;;;;;2.50;1.00;;;;;;;25.16;37.64;102341.72;5106836;28;20031;-48
2022/05/26 04:46:46;;;;;;;1.55;0.50;;;;;;;25.16;37.20;102332.94;5106742;28;20119;-44
2022/05/26 04:49:14;;;;;;;2.58;0.75;;;;;;;25.14;37.34;102338.16;5106973;28;20027;-46
2022/05/26 04:51:43;;;;;;;2.97;0.73;;;;;;;25.15;37.43;102345.19;5106500;28;20054;-48
2022/05/26 04:54:11;;;;;;;2.47;0.80;;;;;;;25.17;37.50;102354.00;5106101;28;20023;-49
2022/05/26 04:56:40;;;;;;;2.50;0.80;;;;;;;25.18;37.25;102357.50;5106414;28;20385;-47
2022/05/26 04:59:08;;;;;;;2.88;1.38;;;;;;;25.16;37.38;102357.47;5106368;28;20059;-47
2022/05/26 05:01:37;;;;;;;1.88;0.60;;;;;;;25.13;37.57;102361.75;5106351;28;20093;-44
2022/05/26 05:04:05;;;;;;;2.22;0.70;;;;;;;25.15;37.33;102358.31;5106566;28;20084;-49
2022/05/26 05:06:33;;;;;;;4.28;1.05;;;;;;;25.14;37.15;102355.66;5106635;28;20122;-43
2022/05/26 05:09:02;;;;;;;2.13;0.77;;;;;;;25.17;37.16;102358.34;5105207;28;20043;-49
2022/05/26 05:11:30;;;;;;;2.25;0.55;;;;;;;25.13;37.13;102351.25;5106512;28;20047;-48
2022/05/26 05:14:01;;;;;;;2.80;0.85;;;;;;;25.16;37.36;102367.06;5105708;28;20028;-46
2022/05/26 05:16:33;;;;;;;4.15;0.63;;;;;;;25.15;37.33;102360.06;5105962;28;20545;-46
2022/05/26 05:19:01;;;;;;;2.13;0.60;;;;;;;25.18;37.15;102370.63;5106037;28;20500;-46
2022/05/26 05:21:35;;;;;;;1.20;0.60;;;;;;;25.17;37.38;102368.84;5106296;28;20085;-49
2022/05/26 05:24:08;;;;;;;3.30;0.60;;;;;;;25.14;37.53;102366.16;5106336;28;20034;-45
2022/05/26 05:26:40;;;;;;;1.10;0.57;;;;;;;25.18;37.33;102373.25;5104970;28;20042;-50
2022/05/26 05:29:11;;;;;;;1.73;0.57;;;;;;;25.13;37.64;102370.50;5105954;28;20039;-50
2022/05/26 05:31:44;;;;;;;1.83;0.70;;;;;;;25.18;37.11;102368.00;5106083;28;20042;-46
2022/05/26 05:34:18;;;;;;;2.22;0.50;;;;;;;25.22;37.15;102375.13;5106108;28;20035;-49
2022/05/26 05:36:47;;;;;;;1.50;0.50;;;;;;;25.18;37.22;102376.78;5104438;28;20038;-45
2022/05/26 05:39:15;;;;;;;0.93;0.50;;;;;;;25.18;37.15;102381.13;5105823;28;20044;-46
2022/05/26 05:41:43;;;;;;;1.00;0.40;;;;;;;25.12;37.48;102384.47;5105820;28;20090;-44
2022/05/26 05:44:11;;;;;;;2.80;0.90;;;;;;;25.19;37.59;102382.91;5105566;28;20497;-45
2022/05/26 05:46:58;;;;;;;1.88;0.80;;;;;;;25.24;36.83;102389.22;5105187;28;20030;-50
2022/05/26 05:49:29;;;;;;;0.80;0.30;;;;;;;25.26;37.08;102390.16;5104656;28;20032;-47
2022/05/26 05:52:01;;;;;;;1.23;0.57;;;;;;;25.25;37.23;102393.63;5104370;28;20397;-44
2022/05/26 05:54:32;;;;;;;2.40;0.70;;;;;;;25.28;37.03;102393.72;5104041;28;20114;-46
2022/05/26 05:57:00;;;;;;;4.05;0.63;;;;;;;25.27;37.21;102396.28;5105603;28;20034;-44
2022/05/26 05:59:29;;;;;;;1.25;0.40;;;;;;;25.22;37.26;102400.53;5105213;28;20028;-45
2022/05/26 06:01:57;;;;;;;1.63;0.52;;;;;;;25.23;37.34;102394.44;5105464;28;20027;-46
2022/05/26 06:04:26;;;;;;;2.22;0.45;;;;;;;25.26;37.07;102400.66;5105328;28;20098;-46
2022/05/26 06:06:54;;;;;;;1.95;0.60;;;;;;;25.22;37.28;102390.03;5105295;28;20065;-45
2022/05/26 06:09:23;;;;;;;1.13;0.50;;;;;;;25.27;36.93;102397.19;5105100;28;20019;-45
2022/05/26 06:11:50;;;;;;;3.22;0.60;;;;;;;25.29;37.01;102402.47;5105542;28;20036;-44
2022/05/26 06:14:19;;;;;;;1.30;0.57;;;;;;;25.25;37.09;102398.88;5105193;28;20062;-46
2022/05/26 06:16:47;;;;;;;1.88;0.40;;;;;;;25.21;37.31;102402.25;5105303;28;20028;-48
2022/05/26 06:19:16;;;;;;;2.97;0.50;;;;;;;25.28;37.43;102413.81;5105289;28;20028;-44
2022/05/26 06:21:44;;;;;;;1.80;0.60;;;;;;;25.20;37.44;102395.22;5104755;28;20046;-44
2022/05/26 06:24:12;;;;;;;2.17;0.82;;;;;;;25.32;37.12;102418.34;5094289;28;20027;-47
2022/05/26 06:26:41;;;;;;;2.28;0.68;;;;;;;25.32;36.94;102419.22;5104789;28;20035;-44
2022/05/26 06:37:30;;;;;;;1.52;0.38;;;;;;;25.34;37.13;102421.91;5082125;28;20042;-44
2022/05/26 06:39:59;;;;;;;4.45;0.60;;;;;;;25.29;37.37;102429.66;5104787;28;20031;-48
2022/05/26 06:42:26;;;;;;;0.55;0.22;;;;;;;25.35;37.32;102431.56;5104415;28;20032;-46
2022/05/26 06:44:55;;;;;;;0.63;0.30;;;;;;;25.37;36.94;102434.22;5104415;28;20118;-44
2022/05/26 06:47:24;;;;;;;1.98;0.63;;;;;;;25.32;37.22;102434.97;5104440;28;20036;-45
2022/05/26 06:49:53;;;;;;;2.63;0.68;;;;;;;25.29;37.07;102437.53;5104802;28;20023;-44
2022/05/26 06:52:23;;;;;;;1.75;0.50;;;;;;;25.34;37.10;102448.16;5104610;28;20059;-44
2022/05/26 06:54:51;;;;;;;1.67;0.47;;;;;;;25.34;37.41;102446.41;5104743;28;20031;-47
2022/05/26 06:57:19;;;;;;;1.83;0.40;;;;;;;25.30;36.97;102435.78;5104354;28;20028;-47
2022/05/26 06:59:48;;;;;;;2.22;0.52;;;;;;;25.39;36.96;102448.31;5104073;28;20031;-43
2022/05/26 07:02:16;;;;;;;1.92;0.40;;;;;;;25.40;37.08;102458.84;5104072;28;20091;-46
2022/05/26 07:04:45;;;;;;;2.13;0.60;;;;;;;25.39;37.19;102462.34;5103857;28;20032;-44
2022/05/26 07:07:15;;;;;;;1.55;0.50;;;;;;;25.39;36.99;102459.72;5104273;28;20111;-45
2022/05/26 07:09:44;;;;;;;1.20;0.85;;;;;;;25.40;37.43;102463.22;5104166;28;20514;-44
2022/05/26 07:12:13;;;;;;;2.13;0.40;;;;;;;25.45;37.05;102466.94;5103957;28;20118;-44
2022/05/26 07:14:41;;;;;;;0.63;0.35;;;;;;;25.47;37.09;102465.25;5104228;28;20052;-47
2022/05/26 07:17:10;;;;;;;2.63;0.43;;;;;;;25.46;37.04;102471.34;5104228;28;20023;-46
2022/05/26 07:19:39;;;;;;;4.30;0.45;;;;;;;25.41;37.23;102463.25;5104090;28;20031;-47
2022/05/26 07:22:08;;;;;;;1.90;0.57;;;;;;;25.44;37.32;102467.78;5104049;28;20024;-48
2022/05/26 07:24:37;;;;;;;1.45;0.32;;;;;;;25.41;37.22;102470.25;5103980;28;20027;-47
2022/05/26 07:27:05;;;;;;;3.55;0.88;;;;;;;25.47;37.11;102465.25;5102672;28;20560;-44
2022/05/26 07:29:34;;;;;;;2.13;0.60;;;;;;;25.46;37.13;102471.34;5103980;28;20091;-44
2022/05/26 07:32:03;;;;;;;1.58;0.60;;;;;;;25.43;37.39;102452.84;5103895;28;20038;-49
2022/05/26 07:34:31;;;;;;;1.40;0.52;;;;;;;25.41;37.49;102455.38;5104165;28;20023;-46
2022/05/26 07:42:36;;;;;;;0.80;0.38;;;;;;;25.44;37.29;102473.91;5099797;28;20409;-45
2022/05/26 07:45:08;;;;;;;1.45;0.50;;;;;;;25.46;37.42;102469.59;5103915;28;20031;-45
2022/05/26 07:47:36;;;;;;;2.30;0.68;;;;;;;25.47;37.40;102473.13;5103792;28;20027;-48
2022/05/26 07:50:06;;;;;;;2.00;0.50;;;;;;;25.51;37.16;102476.72;5103687;28;20040;-47
2022/05/26 07:52:34;;;;;;;1.35;0.40;;;;;;;25.49;37.03;102471.41;5102310;28;20586;-44
2022/05/26 07:55:03;;;;;;;1.17;0.50;;;;;;;25.46;37.17;102468.72;5104121;28;20023;-49
2022/05/26 07:57:31;;;;;;;2.03;0.32;;;;;;;25.52;37.26;102476.75;5103662;28;20389;-47
2022/05/26 08:00:00;;;;;;;2.70;0.60;;;;;;;25.51;37.19;102482.84;5103859;28;20019;-47
2022/05/26 08:02:27;;;;;;;1.58;0.40;;;;;;;25.50;37.00;102488.09;5103312;28;20069;-47
2022/05/26 08:04:55;;;;;;;1.02;0.40;;;;;;;25.47;36.88;102478.38;5103673;28;20080;-45
2022/05/26 08:07:24;;;;;;;2.53;0.77;;;;;;;25.48;37.10;102485.41;5104011;28;20089;-46
2022/05/26 08:09:52;;;;;;;5.18;0.45;;;;;;;25.48;37.11;102493.31;5102296;28;20062;-45
2022/05/26 08:12:21;;;;;;;1.70;0.47;;;;;;;25.49;37.29;102495.06;5103306;28;20038;-46
2022/05/26 08:14:49;;;;;;;1.98;0.52;;;;;;;25.47;37.27;102500.28;5102902;28;20476;-44
2022/05/26 08:17:22;;;;;;;0.65;0.25;;;;;;;25.49;37.22;102495.06;5102310;28;20031;-48
2022/05/26 08:19:51;;;;;;;9.90;0.60;;;;;;;25.45;37.37;102499.34;5103799;28;20389;-50
2022/05/26 08:22:20;;;;;;;1.23;0.35;;;;;;;25.51;37.24;102496.00;5103517;28;20031;-50
2022/05/26 08:24:53;;;;;;;2.22;0.80;;;;;;;25.55;37.13;102491.75;5101763;28;20449;-47
2022/05/26 08:27:22;;;;;;;1.40;0.43;;;;;;;25.53;37.22;102496.94;5103634;28;20027;-51
2022/05/26 08:29:51;;;;;;;1.95;0.60;;;;;;;25.54;37.27;102503.97;5103951;28;20035;-48
2022/05/26 08:32:20;;;;;;;3.35;0.50;;;;;;;25.50;37.01;102501.22;5105559;28;20035;-50
2022/05/26 08:34:49;;;;;;;2.15;0.50;;;;;;;25.53;37.07;102503.94;5107045;28;20493;-48
2022/05/26 08:37:21;;;;;;;6.55;1.17;;;;;;;25.51;37.07;102490.75;5106835;28;20091;-45
2022/05/26 08:39:50;;;;;;;1.58;0.60;;;;;;;25.57;37.02;102514.59;5107071;28;20024;-46
2022/05/26 08:42:31;;;;;;;1.50;0.60;;;;;;;25.54;37.13;102503.97;5106784;28;20019;-46
2022/05/26 08:45:06;;;;;;;2.47;0.82;;;;;;;25.52;37.28;102512.66;5105511;28;20039;-48
2022/05/26 08:47:39;;;;;;;2.83;0.50;;;;;;;25.48;37.59;102519.56;5106914;28;20463;-49
2022/05/26 08:50:13;;;;;;;1.35;0.30;;;;;;;25.47;37.50;102517.78;5105510;28;20051;-45
2022/05/26 08:52:49;;;;;;;1.50;0.40;;;;;;;25.52;37.62;102531.06;5106937;28;20073;-45
2022/05/26 08:55:20;;;;;;;1.70;0.50;;;;;;;25.48;37.47;102522.19;5105217;28;20275;-44
2022/05/26 08:58:01;;;;;;;3.83;0.80;;;;;;;25.46;37.33;102505.50;5105283;28;20065;-47
2022/05/26 09:00:30;;;;;;;2.10;0.43;;;;;;;25.50;37.21;102519.59;5106855;28;20059;-45
2022/05/26 09:03:01;;;;;;;1.05;0.47;;;;;;;25.51;37.55;102509.13;5105344;28;20027;-45
2022/05/26 09:05:34;;;;;;;1.05;0.40;;;;;;;25.53;37.30;102515.34;5106952;28;20042;-48
2022/05/26 09:13:54;;;;;;;2.15;1.00;;;;;;;25.59;37.50;102533.03;5099269;28;20048;-46
2022/05/26 09:16:23;;;;;;;2.53;0.75;;;;;;;25.57;37.54;102530.34;5106347;28;20111;-51
2022/05/26 09:19:12;;;;;;;1.35;0.50;;;;;;;25.63;37.16;102540.16;5106454;28;20035;-47
2022/05/26 09:21:41;;;;;;;2.33;0.95;;;;;;;25.61;37.22;102540.13;5074733;28;20046;-47
2022/05/26 09:24:31;;;;;;;1.23;0.40;;;;;;;25.61;37.16;102540.13;5106107;28;20066;-47
2022/05/26 09:27:02;;;;;;;1.40;0.50;;;;;;;25.60;37.13;102540.06;5102998;28;20169;-48
2022/05/26 09:29:33;;;;;;;3.45;0.68;;;;;;;25.69;37.03;102539.44;5106092;28;20055;-48
2022/05/26 09:32:03;;;;;;;2.10;0.63;;;;;;;25.65;37.30;102550.75;5105854;28;20035;-48
2022/05/26 09:34:33;;;;;;;2.72;0.50;;;;;;;25.63;37.21;102545.41;5104489;28;20024;-47
2022/05/26 09:37:04;;;;;;;1.92;0.38;;;;;;;25.60;37.32;102555.81;5106165;28;20374;-45
2022/05/26 09:39:37;;;;;;;2.08;0.80;;;;;;;25.61;37.25;102552.34;5106367;28;20123;-48
2022/05/26 09:42:28;;;;;;;2.67;0.68;;;;;;;25.50;37.13;102538.88;5105598;28;20038;-45
2022/05/26 09:45:00;;;;;;;1.77;0.50;;;;;;;25.66;37.21;102560.38;5105656;28;20112;-44
2022/05/26 09:47:41;;;;;;;1.60;0.60;;;;;;;25.67;37.34;102562.16;5104529;28;20019;-48
2022/05/26 09:50:16;;;;;;;2.53;0.50;;;;;;;25.71;36.79;102570.22;5104129;28;20042;-45
2022/05/26 09:52:49;;;;;;;3.83;0.65;;;;;;;25.73;36.66;102552.72;5105593;28;20046;-44
2022/05/26 09:55:24;;;;;;;2.10;0.88;;;;;;;25.72;36.74;102563.22;5095028;28;20031;-49
2022/05/26 09:57:54;;;;;;;;;;;;;;;25.71;37.18;102567.59;5106214;28;20091;-45
2022/05/26 10:00:42;;;;;;;6.13;0.98;;;;;;;25.73;36.87;102576.38;5103935;28;19973;-45
2022/05/26 10:03:49;;;;;;;2.42;0.60;;;;;;;25.73;36.85;102575.50;5103923;28;20118;-48
2022/05/26 10:06:28;;;;;;;3.10;1.15;;;;;;;25.74;36.73;102575.53;5100771;28;20039;-44
2022/05/26 10:09:07;;;;;;;1.23;0.55;;;;;;;25.76;36.96;102576.50;5103725;28;20031;-50
2022/05/26 10:11:58;;;;;;;3.33;0.43;;;;;;;25.68;36.99;102572.75;5105332;28;20054;-47
2022/05/26 10:14:45;;;;;;;3.40;1.05;;;;;;;25.77;36.83;102580.91;5101273;28;20043;-45
2022/05/26 10:17:31;;;;;;;1.60;0.65;;;;;;;25.70;37.08;102580.66;5101724;28;20124;-43
2022/05/26 10:20:24;;;;;;;1.95;0.32;;;;;;;25.74;36.73;102579.94;5105197;28;20035;-45
2022/05/26 10:22:53;;;;;;;4.32;0.40;;;;;;;25.74;36.97;102586.06;5104098;28;20035;-45
2022/05/26 10:25:44;;;;;;;2.35;0.50;;;;;;;25.75;37.27;102589.59;5104892;28;20024;-46
2022/05/26 10:28:32;;;;;;;0.52;0.30;;;;;;;25.76;37.20;102581.75;5104558;28;20467;-49
2022/05/26 10:31:03;;;;;;;2.05;0.47;;;;;;;25.76;36.85;102592.25;5100886;28;20138;-49
2022/05/26 10:33:43;;;;;;;1.13;0.50;;;;;;;25.84;36.81;102600.38;5105015;28;20032;-46
2022/05/26 10:36:26;;;;;;;2.25;0.63;;;;;;;25.81;36.64;102587.16;5104421;28;20489;-45
2022/05/26 10:39:21;;;;;;;1.25;0.30;;;;;;;25.82;36.55;102591.56;5103567;28;20035;-45
2022/05/26 10:42:08;;;;;;;;;;;;;;;25.83;36.76;102589.84;5102521;28;20051;-50
2022/05/26 10:44:43;;;;;;;1.20;0.55;;;;;;;25.75;36.62;102569.44;5104596;28;19915;-46
2022/05/26 10:47:21;;;;;;;;;;;;;;;25.89;36.63;102587.41;5105260;28;20047;-44
2022/05/26 10:50:04;;;;;;;1.13;0.30;;;;;;;25.82;36.81;102588.03;5104525;28;20368;-47
2022/05/26 10:52:53;;;;;;;3.60;0.55;;;;;;;25.86;36.73;102584.69;5102533;28;20392;-47
2022/05/26 10:55:26;;;;;;;3.30;0.85;;;;;;;25.77;36.67;102586.16;5103235;28;20035;-47
2022/05/26 10:58:06;;;;;;;3.58;0.60;;;;;;;25.85;36.88;102583.75;5103115;28;20036;-49
2022/05/26 11:00:35;;;;;;;0.70;0.32;;;;;;;25.84;36.83;102586.38;5102884;28;20184;-49
2022/05/26 11:03:25;;;;;;;0.57;0.40;;;;;;;25.81;36.88;102576.66;5104354;28;20210;-44
2022/05/26 11:06:02;;;;;;;2.70;0.55;;;;;;;25.83;36.91;102582.81;5101339;28;20043;-47
2022/05/26 11:08:37;;;;;;;2.63;0.65;;;;;;;25.84;36.58;102579.34;5103006;28;20901;-45
2022/05/26 11:11:43;;;;;;;1.52;0.50;;;;;;;25.82;37.09;102585.41;5103522;28;20059;-47
2022/05/26 11:17:30;;;;;;;1.23;0.32;;;;;;;25.78;37.26;102581.81;5100130;28;20520;-44
2022/05/26 11:20:17;;;;;;;1.50;0.50;;;;;;;25.88;37.00;102591.75;5103223;28;20063;-47
2022/05/26 11:22:46;;;;;;;2.75;0.50;;;;;;;25.90;37.08;102592.69;5100452;28;20036;-43
2022/05/26 11:25:15;;;;;;;2.75;0.70;;;;;;;25.81;36.88;102586.25;5102857;28;20134;-46
2022/05/26 11:27:52;;;;;;;2.88;0.57;;;;;;;25.77;37.50;102593.16;5102671;28;20027;-45
2022/05/26 11:36:15;;;;;;;2.20;0.45;;;;;;;25.81;37.03;102595.06;5103515;28;20382;-45
2022/05/26 11:38:46;;;;;;;0.90;0.47;;;;;;;25.82;37.13;102593.31;5103974;28;20055;-50
2022/05/26 11:41:27;;;;;;;1.55;0.38;;;;;;;25.89;37.11;102595.28;5102253;28;20035;-47
2022/05/26 11:43:59;;;;;;;4.55;0.60;;;;;;;25.91;37.35;102601.47;5104154;28;20389;-46
2022/05/26 11:46:47;;;;;;;0.88;0.40;;;;;;;25.84;36.91;102570.59;5104239;28;20028;-45
2022/05/26 11:49:44;;;;;;;2.20;0.30;;;;;;;26.02;36.92;102586.94;5100279;28;20043;-47
2022/05/26 11:52:25;;;;;;;0.90;0.20;;;;;;;26.02;36.92;102591.28;5102026;28;20428;-50
2022/05/26 11:54:55;;;;;;;1.23;0.40;;;;;;;26.04;36.60;102589.59;5102404;28;20055;-45
2022/05/26 11:57:43;;;;;;;1.15;0.30;;;;;;;26.05;36.63;102591.38;5104058;28;20027;-48
2022/05/26 12:00:40;;;;;;;0.65;0.40;;;;;;;26.04;36.78;102590.50;5104010;28;20055;-46
2022/05/26 12:03:29;;;;;;;0.90;0.25;;;;;;;26.03;37.06;102579.91;5102026;28;20047;-47
2022/05/26 12:05:56;;;;;;;0.22;0.20;;;;;;;26.05;36.65;102581.75;5080197;28;20027;-44
2022/05/26 12:08:29;;;;;;;0.47;0.30;;;;;;;26.05;36.68;102575.59;5107828;28;20191;-44
2022/05/26 12:11:01;;;;;;;1.52;0.28;;;;;;;26.10;36.75;102579.25;5106089;28;20047;-44
2022/05/26 12:13:33;;;;;;;1.98;0.50;;;;;;;26.09;36.96;102574.84;5107803;28;20110;-43
2022/05/26 12:16:07;;;;;;;2.35;0.40;;;;;;;26.12;37.15;102574.06;5106172;28;20261;-45
2022/05/26 12:18:51;;;;;;;0.98;0.30;;;;;;;26.15;36.97;102579.41;5107413;28;20066;-46
2022/05/26 12:21:38;;;;;;;1.48;0.38;;;;;;;26.13;36.57;102575.84;5107452;28;20077;-49
2022/05/26 12:24:35;;;;;;;1.08;0.30;;;;;;;26.17;36.72;102578.59;5107461;28;20127;-49
2022/05/26 12:27:05;;;;;;;1.33;0.50;;;;;;;26.13;36.57;102574.13;5099334;28;20043;-47
2022/05/26 12:29:51;;;;;;;2.80;0.50;;;;;;;26.15;36.54;102569.78;5107581;28;20027;-44
2022/05/26 12:32:39;;;;;;;1.15;0.20;;;;;;;26.15;36.68;102567.16;5107363;27;20027;-48
2022/05/26 12:35:26;;;;;;;2.53;0.40;;;;;;;26.11;36.76;102560.03;5105759;28;20024;-45